Aviation Digital Data Service (ADDS)

Output produced by METARs form (1639 UTC 16 June 2019)
found at http://www.aviationweather.gov/metar/data/
 
TAF MPPA 161100Z 1612/1718 35006KT 9999 FEW018 
     PROB30 
     TEMPO 1618/1621 18008KT 6000 TSRA SCT015CB BKN090 
     TEMPO 1704/1708 00000KT
       
TAF MPDA 161100Z 1612/1624 18008KT 9999 SCT018 
     TEMPO 1612/1614 03004KT 
     PROB30 
     TEMPO 1620/1624 5000 TSRA SCT015CB BKN090
       
TAF MPMG 161100Z 1612/1624 32006KT 9999 SCT018 
     PROB30 
     TEMPO 1618/1621 17008KT 5000 TSRA SCT015CB BKN090
       
TAF MPTO 161100Z 1612/1718 31006KT 9999 FEW018 
     PROB30 
     TEMPO 1618/1621 18006KT 6000 TSRA SCT015CB BKN090 
     TEMPO 1704/1708 00000KT